AirNav   Everest Fuels
 
 548 users online  

5W4 P K Airpark
Raeford, North Carolina, USA

GOING TO RAEFORD?


FAA INFORMATION EFFECTIVE 03 NOVEMBER 2022

Location

FAA Identifier: 5W4
Lat/Long: 35-01-11.4950N 079-11-27.6140W
35-01.191583N 079-11.460233W
35.0198597,-79.1910039
(estimated)
Elevation: 304 ft. / 92.7 m (surveyed)
Variation: 09W (2020)
From city: 3 miles NE of RAEFORD, NC
Time zone: UTC -5 (UTC -4 during Daylight Saving Time)
Zip code: 28376

Airport Operations

Airport use: Open to the public
Activation date: 05/1964
Control tower: no
ARTCC: WASHINGTON CENTER
FSS: RALEIGH FLIGHT SERVICE STATION
NOTAMs facility: RDU (NOTAM-D service available)
Attendance: 0830-DUSK
Wind indicator: lighted
Segmented circle: yes
Beacon: white-green (lighted land airport)
Operates sunset to sunrise.

Airport Communications

CTAF/UNICOM: 123.0
FAYETTEVILLE APPROACH: 127.8
FAYETTEVILLE DEPARTURE: 127.8
WX ASOS at HFF (15 nm W): 141.25 (910-396-7804)
WX ASOS at FAY (15 nm E): 121.25 (910-484-1546)
WX ASOS at MEB (16 nm SW): 134.125 (910-844-5338)
WX AWOS-3PT at SOP (16 nm NW): 127.575 (910-692-4287)

Nearby radio navigation aids

VOR radial/distance  VOR name  Freq  Var
FAYr282/15.7FAYETTEVILLE VOR/DME114.8504W
SDZr124/22.7SANDHILLS VORTAC111.8003W

 
NDB name  Hdg/Dist  Freq  Var  ID
DILLON023/35.327409WDLC -.. .-.. -.-.
HARNETT234/35.441708WHQT .... --.- -
BENNETTSVILLE056/35.923008WBES -... . ...

Airport Services

Fuel available: 100LL JET-A+
Parking: tiedowns
Airframe service: NONE
Powerplant service: NONE
Bottled oxygen: NONE
Bulk oxygen: NONE

Runway Information

Runway 4/22

Dimensions: 3402 x 60 ft. / 1037 x 18 m
Surface: asphalt, in good condition
Weight bearing capacity: 
Single wheel: 30.0
Runway edge lights: medium intensity
RUNWAY 4  RUNWAY 22
Latitude: 35-00.956983N35-01.426050N
Longitude: 079-11.647300W079-11.273650W
Elevation: 292.0 ft.304.0 ft.
Traffic pattern: leftright
Runway heading: 042 magnetic, 033 true222 magnetic, 213 true
Markings: nonprecision, in good conditionnonprecision, in good condition
Touchdown point: yes, no lightsyes, no lights
Obstructions: 63 ft. trees, 631 ft. from runway, 66 ft. right of centerline, 6:1 slope to clear41 ft. trees, 615 ft. from runway, 42 ft. left of centerline, 10:1 slope to clear
HAS 15 FT BRUSH 0-200 FT FM THR OFFSET 121 FT R OF CNTRLN.

Airport Ownership and Management from official FAA records

Ownership: Privately-owned
Owner: BILLIE THACKER
PO DRAWER 1510
RAEFORD, NC 28376
Phone 910-875-3261
Manager: JOEY D'ANNUNZIO
155 AIRPORT DRIVE
RAEFORD, NC 28376
Phone (910) 904-0000

Airport Operational Statistics

Aircraft based on the field: 8
Single engine airplanes: 2
Multi engine airplanes: 6
    
Aircraft operations: avg 64/day *
77% local general aviation
21% military
2% transient general aviation
* for 12-month period ending 29 July 2022

Additional Remarks

CAUTION: LOW FLYING MIL ACFT IN AREA; ARPT LCTD WITHIN AN MOA.
FRQ PRCHT ACT TO TARGET 300 FT SE OF TERMINAL APRON.
ACFT IN VICINITY MONITOR 123.5.
FLY ONE MILE DOWN WIND LEG TO PREVENT CONFLICTS WITH PAJA (DROP ZONE SOUTHEAST FROM RWY).
AFTER HOURS SVC 910-578-4401.
MONITOR FREQ 123.5 FOR PAJA.
FOR CD CTC WASHINGTON ARTCC AT 703-771-3587.
CTN DO NOT OVERFLY AIRPORT DUE TO PAJA.

Instrument Procedures

NOTE: All procedures below are presented as PDF files. If you need a reader for these files, you should download the free Adobe Reader.

NOT FOR NAVIGATION. Please procure official charts for flight.
FAA instrument procedures published for use from 03 November 2022 at 0901Z to 01 December 2022 at 0900Z.

 
IAPs - Instrument Approach Procedures
RNAV (GPS)-A   download (137KB)
VOR-A   download (159KB)
NOTE: Special Take-Off Minimums/Departure Procedures apply   download (141KB)

Other nearby airports with instrument procedures:

KPOB - Pope Army Airfield (13 nm NE)
KFBG - Simmons Army Airfield (14 nm NE)
KHFF - Mackall Army Airfield (15 nm W)
KFAY - Fayetteville Regional Airport/Grannis Field (15 nm E)
KMEB - Laurinburg/Maxton Airport (16 nm SW)
KSOP - Moore County Airport (16 nm NW)
 
Loc | Ops | Rwys | IFR | FBO | Links
Com | Nav | Svcs | Stats | Notes
Area around 5W4 (P K Airpark)
 
Road maps at: MapQuest Bing Google
 
Aerial photo
WARNING: Photo may not be current or correct
Aerial photo of 5W4 (P K Airpark)
Photo by Kelvin Draughon
Photo taken 25-Dec-2016
looking northeast.

Do you have a better or more recent aerial photo of P K Airpark that you would like to share? If so, please send us your photo.

 
Sectional chart

 
Airport distance calculator
Flying to P K Airpark? Find the distance to fly.

From to 5W4

Sunrise and sunset
Times for 30-Nov-2022
 Local
(UTC-5)
 Zulu
(UTC)
Morning civil twilight06:3911:39
Sunrise07:0712:07
Sunset17:0422:04
Evening civil twilight17:3222:32

Current date and time
Zulu (UTC)  30-Nov-2022 11:24:57
Local (UTC-5)  30-Nov-2022 06:24:57
 
METAR
KPOB 
12nm NE 
301055Z AUTO 26003KT 10SM -RA OVC070 10/09 A3007 RMK AO2 SLP186 P0000 T01020093 $
KFBG 
15nm NE 
301056Z AUTO 33004KT 10SM -RA FEW042 OVC070 11/10 A3005 RMK AO2 RAB55 SLP179 $
KHFF 
15nm W 
301055Z AUTO 16004KT 5SM -RA BR SCT065 BKN080 OVC100 11/11 A3004 RMK AO2 SLP175 P0010 T01090107 $
KFAY 
15nm E 
301053Z 00000KT 10SM OVC075 11/11 A3006 RMK AO2 SLP173 T01110106
KSOP 
16nm NW 
301056Z AUTO 13005KT 4SM -RA BR SCT003 SCT055 OVC075 11/11 A3007 RMK AO2 SLP186 P0009 T01060106 TSNO
KMEB 
17nm SW 
301052Z AUTO 02003KT 10SM FEW043 OVC075 12/11 A3008 RMK AO2 RAB24E47 SLP183 P0002 T01220106
TAF
KPOB 
12nm NE 
291813Z 2918/3024 13007KT 9999 FEW030 QNH3014INS BECMG 2922/2923 15005KT 9999 BKN030 BKN240 QNH3003INS BECMG 3010/3011 19008KT 8000 -RA BR BKN010 OVC050 WS020/21038KT QNH3001INS BECMG 3013/3014 21014G27KT 4000 -SHRA BR BKN004 BKN008 OVC045 520105 QNH2990INS BECMG 3018/3019 26011G18KT 9999 VCSH FEW005 BKN012 BKN045 510103 QNH2990INS BECMG 3022/3023 32013G22KT 9999 NSW SCT020 510103 QNH2996INS TX20/2920Z TN09/3011Z LAST NO AMDS AFT 2923 NEXT 3018
KFBG 
15nm NE 
301002Z 3010/0116 VRB03KT 6000 SHRA SCT020 BKN040 OVC050 510003 QNH3004INS BECMG 3013/3014 17010KT 4800 SHRA BKN004 OVC008 WS020/22045KT 540003 QNH2993INS BECMG 3023/3024 31012KT 9999 NSW SKC 510002 QNH3002INS TX18/3020Z TN04/0110Z
KFAY 
15nm E 
300906Z 3009/0106 VRB03KT P6SM SCT015 BKN070 FM301000 13004KT 5SM -RA BR SCT012 BKN020 OVC060 FM301200 18010KT 3SM +RA BR BKN012 OVC050 WS020/18050KT TEMPO 3015/3019 19014G30KT 5SM -RA BR OVC008 FM301900 23012G25KT 5SM BR VCSH BKN010 FM010000 25010G18KT P6SM VCSH SCT015
NOTAMs
Click for the latest NOTAMs
NOTAMs are issued by the DoD/FAA and will open in a separate window not controlled by AirNav.

 

 
 

FBO, Fuel Providers, and Aircraft Ground Support

  
 Business Name 
 
 Contact 
 
 Services / Description 
 
Fuel Prices
 
Comments
  
Skydive Paraclete XP 910-904-0000
no information available

If you are affiliated with Skydive Paraclete XP and would like to show here your services, contact info, web link, logo, and more, click here
100LL Jet A
FS $10.00 $10.00 
 Updated 11-Nov-2022
 
   write
FS=Full service
Update Fuel Prices
 

Aviation Businesses, Services, and Facilities

  
 Business Name 
 
 Contact 
 
 Services / Description 
 
Distance
 
Comments
  
Raeford Aviation 910-875-3261
no information available

If you are affiliated with Raeford Aviation and would like to show here your services, contact info, web link, logo, and more, click here
on airport  
   write
 

Where to Eat: Catering, Restaurants, Food shops

  
 Business Name 
 
 Contact 
 
 Services / Description 
 
Distance
 
Comments
  
Aviators Grill & Pub 910-904-6761
no information available

If you are affiliated with Aviators Grill & Pub and would like to show here your services, contact info, web link, logo, and more, click here
on airport  
   write
 

Would you like to see your business listed on this page?

 If your business provides an interesting product or service to pilots, flight crews, aircraft, or users of the P K Airpark, you should consider listing it here.  To start the listing process, click on the button below
 
Add a business
 

Other Pages about P K Airpark

Update a link
 
Copyright © AirNav, LLC. All rights reserved. Privacy Policy  Contact